sensor_id;sensor_type;location;lat;lon;timestamp;P1;durP1;ratioP1;P2;durP2;ratioP2
16862;SDS011;52193;48.216;-1.698;2022-09-13T00:02:17;0.88;;;0.75;;
16862;SDS011;52193;48.216;-1.698;2022-09-13T00:04:44;7.57;;;0.88;;
16862;SDS011;52193;48.216;-1.698;2022-09-13T00:07:11;2.95;;;1.27;;
16862;SDS011;52193;48.216;-1.698;2022-09-13T00:09:38;0.70;;;0.70;;
16862;SDS011;52193;48.216;-1.698;2022-09-13T00:12:06;2.63;;;0.95;;
16862;SDS011;52193;48.216;-1.698;2022-09-13T00:14:33;2.00;;;0.80;;
16862;SDS011;52193;48.216;-1.698;2022-09-13T00:17:00;1.02;;;0.90;;
16862;SDS011;52193;48.216;-1.698;2022-09-13T00:19:27;1.00;;;0.90;;
16862;SDS011;52193;48.216;-1.698;2022-09-13T00:21:54;1.65;;;0.70;;
16862;SDS011;52193;48.216;-1.698;2022-09-13T00:24:21;3.75;;;0.88;;
16862;SDS011;52193;48.216;-1.698;2022-09-13T00:26:48;0.80;;;0.80;;
16862;SDS011;52193;48.216;-1.698;2022-09-13T00:29:16;0.77;;;0.77;;
16862;SDS011;52193;48.216;-1.698;2022-09-13T00:31:44;1.38;;;1.00;;
16862;SDS011;52193;48.216;-1.698;2022-09-13T00:34:11;2.35;;;1.00;;
16862;SDS011;52193;48.216;-1.698;2022-09-13T00:36:38;2.60;;;0.60;;
16862;SDS011;52193;48.216;-1.698;2022-09-13T00:39:05;0.98;;;0.80;;
16862;SDS011;52193;48.216;-1.698;2022-09-13T00:41:32;2.83;;;0.88;;
16862;SDS011;52193;48.216;-1.698;2022-09-13T00:43:59;4.13;;;0.77;;
16862;SDS011;52193;48.216;-1.698;2022-09-13T00:46:30;1.77;;;0.95;;
16862;SDS011;52193;48.216;-1.698;2022-09-13T00:49:04;1.75;;;0.65;;
16862;SDS011;52193;48.216;-1.698;2022-09-13T00:51:39;0.70;;;0.60;;
16862;SDS011;52193;48.216;-1.698;2022-09-13T00:54:09;0.57;;;0.57;;
16862;SDS011;52193;48.216;-1.698;2022-09-13T00:56:38;1.48;;;0.95;;
16862;SDS011;52193;48.216;-1.698;2022-09-13T00:59:09;1.88;;;0.80;;
16862;SDS011;52193;48.216;-1.698;2022-09-13T01:01:43;1.10;;;1.00;;
16862;SDS011;52193;48.216;-1.698;2022-09-13T01:04:14;3.45;;;0.80;;
16862;SDS011;52193;48.216;-1.698;2022-09-13T01:06:43;0.88;;;0.60;;
16862;SDS011;52193;48.216;-1.698;2022-09-13T01:09:10;0.70;;;0.68;;
16862;SDS011;52193;48.216;-1.698;2022-09-13T01:11:40;0.98;;;0.80;;
16862;SDS011;52193;48.216;-1.698;2022-09-13T01:14:11;2.42;;;0.75;;
16862;SDS011;52193;48.216;-1.698;2022-09-13T01:16:39;1.42;;;0.95;;
16862;SDS011;52193;48.216;-1.698;2022-09-13T01:19:07;1.05;;;0.93;;
16862;SDS011;52193;48.216;-1.698;2022-09-13T01:21:47;3.42;;;0.80;;
16862;SDS011;52193;48.216;-1.698;2022-09-13T01:24:46;1.55;;;1.00;;
16862;SDS011;52193;48.216;-1.698;2022-09-13T01:27:37;2.58;;;1.05;;
16862;SDS011;52193;48.216;-1.698;2022-09-13T01:30:20;3.03;;;1.00;;
16862;SDS011;52193;48.216;-1.698;2022-09-13T01:32:56;1.48;;;0.90;;
16862;SDS011;52193;48.216;-1.698;2022-09-13T01:35:55;2.25;;;0.90;;
16862;SDS011;52193;48.216;-1.698;2022-09-13T01:38:49;0.82;;;0.68;;
16862;SDS011;52193;48.216;-1.698;2022-09-13T01:41:29;3.05;;;0.90;;
16862;SDS011;52193;48.216;-1.698;2022-09-13T01:44:09;1.70;;;0.88;;
16862;SDS011;52193;48.216;-1.698;2022-09-13T01:46:46;1.40;;;0.60;;
16862;SDS011;52193;48.216;-1.698;2022-09-13T01:49:20;1.42;;;0.98;;
16862;SDS011;52193;48.216;-1.698;2022-09-13T01:51:55;3.47;;;0.70;;
16862;SDS011;52193;48.216;-1.698;2022-09-13T01:54:29;1.95;;;0.90;;
16862;SDS011;52193;48.216;-1.698;2022-09-13T01:57:02;1.42;;;0.95;;
16862;SDS011;52193;48.216;-1.698;2022-09-13T01:59:37;1.33;;;0.90;;
16862;SDS011;52193;48.216;-1.698;2022-09-13T02:02:14;1.65;;;0.90;;
16862;SDS011;52193;48.216;-1.698;2022-09-13T02:04:45;1.67;;;1.17;;
16862;SDS011;52193;48.216;-1.698;2022-09-13T02:07:19;1.63;;;0.82;;
16862;SDS011;52193;48.216;-1.698;2022-09-13T02:09:51;1.80;;;0.80;;
16862;SDS011;52193;48.216;-1.698;2022-09-13T02:12:23;4.13;;;0.80;;
16862;SDS011;52193;48.216;-1.698;2022-09-13T02:14:53;2.83;;;1.08;;
16862;SDS011;52193;48.216;-1.698;2022-09-13T02:17:27;2.67;;;1.17;;
16862;SDS011;52193;48.216;-1.698;2022-09-13T02:19:58;1.02;;;0.93;;
16862;SDS011;52193;48.216;-1.698;2022-09-13T02:22:29;2.05;;;1.05;;
16862;SDS011;52193;48.216;-1.698;2022-09-13T02:24:59;1.58;;;0.90;;
16862;SDS011;52193;48.216;-1.698;2022-09-13T02:27:32;1.63;;;0.73;;
16862;SDS011;52193;48.216;-1.698;2022-09-13T02:30:01;1.10;;;1.08;;
16862;SDS011;52193;48.216;-1.698;2022-09-13T02:32:33;4.15;;;0.90;;
16862;SDS011;52193;48.216;-1.698;2022-09-13T02:35:04;0.90;;;0.90;;
16862;SDS011;52193;48.216;-1.698;2022-09-13T02:37:35;1.10;;;0.95;;
16862;SDS011;52193;48.216;-1.698;2022-09-13T02:40:06;4.57;;;0.80;;
16862;SDS011;52193;48.216;-1.698;2022-09-13T02:42:38;2.78;;;1.17;;
16862;SDS011;52193;48.216;-1.698;2022-09-13T02:45:08;2.22;;;1.02;;
16862;SDS011;52193;48.216;-1.698;2022-09-13T02:47:39;2.05;;;0.95;;
16862;SDS011;52193;48.216;-1.698;2022-09-13T02:50:18;2.03;;;1.05;;
16862;SDS011;52193;48.216;-1.698;2022-09-13T02:52:56;1.85;;;1.00;;
16862;SDS011;52193;48.216;-1.698;2022-09-13T02:55:29;1.08;;;0.90;;
16862;SDS011;52193;48.216;-1.698;2022-09-13T02:58:03;0.85;;;0.70;;
16862;SDS011;52193;48.216;-1.698;2022-09-13T03:00:36;2.22;;;1.20;;
16862;SDS011;52193;48.216;-1.698;2022-09-13T03:03:06;2.75;;;1.00;;
16862;SDS011;52193;48.216;-1.698;2022-09-13T03:05:37;3.60;;;1.23;;
16862;SDS011;52193;48.216;-1.698;2022-09-13T03:08:04;1.35;;;0.93;;
16862;SDS011;52193;48.216;-1.698;2022-09-13T03:10:35;2.47;;;1.10;;
16862;SDS011;52193;48.216;-1.698;2022-09-13T03:13:15;1.98;;;1.23;;
16862;SDS011;52193;48.216;-1.698;2022-09-13T03:16:01;0.93;;;0.93;;
16862;SDS011;52193;48.216;-1.698;2022-09-13T03:18:40;3.25;;;0.90;;
16862;SDS011;52193;48.216;-1.698;2022-09-13T03:21:18;0.90;;;0.90;;
16862;SDS011;52193;48.216;-1.698;2022-09-13T03:24:00;3.05;;;0.98;;
16862;SDS011;52193;48.216;-1.698;2022-09-13T03:26:38;1.88;;;1.10;;
16862;SDS011;52193;48.216;-1.698;2022-09-13T03:29:16;0.80;;;0.80;;
16862;SDS011;52193;48.216;-1.698;2022-09-13T03:31:53;2.00;;;1.23;;
16862;SDS011;52193;48.216;-1.698;2022-09-13T03:34:32;2.50;;;1.02;;
16862;SDS011;52193;48.216;-1.698;2022-09-13T03:37:04;1.38;;;1.27;;
16862;SDS011;52193;48.216;-1.698;2022-09-13T03:39:38;2.42;;;1.17;;
16862;SDS011;52193;48.216;-1.698;2022-09-13T03:42:10;4.45;;;1.33;;
16862;SDS011;52193;48.216;-1.698;2022-09-13T03:44:40;1.27;;;0.98;;
16862;SDS011;52193;48.216;-1.698;2022-09-13T03:47:10;2.50;;;0.90;;
16862;SDS011;52193;48.216;-1.698;2022-09-13T03:49:41;3.10;;;1.33;;
16862;SDS011;52193;48.216;-1.698;2022-09-13T03:52:08;0.80;;;0.80;;
16862;SDS011;52193;48.216;-1.698;2022-09-13T03:54:36;2.47;;;1.27;;
16862;SDS011;52193;48.216;-1.698;2022-09-13T03:57:07;1.27;;;1.13;;
16862;SDS011;52193;48.216;-1.698;2022-09-13T03:59:36;1.23;;;1.13;;
16862;SDS011;52193;48.216;-1.698;2022-09-13T04:02:05;2.20;;;1.27;;
16862;SDS011;52193;48.216;-1.698;2022-09-13T04:04:35;1.17;;;1.10;;
16862;SDS011;52193;48.216;-1.698;2022-09-13T04:07:04;2.63;;;1.00;;
16862;SDS011;52193;48.216;-1.698;2022-09-13T04:09:32;2.13;;;1.10;;
16862;SDS011;52193;48.216;-1.698;2022-09-13T04:11:59;2.65;;;1.20;;
16862;SDS011;52193;48.216;-1.698;2022-09-13T04:14:26;1.05;;;0.95;;
16862;SDS011;52193;48.216;-1.698;2022-09-13T04:16:53;1.35;;;1.00;;
16862;SDS011;52193;48.216;-1.698;2022-09-13T04:19:21;2.40;;;1.23;;
16862;SDS011;52193;48.216;-1.698;2022-09-13T04:21:49;4.00;;;1.20;;
16862;SDS011;52193;48.216;-1.698;2022-09-13T04:24:18;1.30;;;1.05;;
16862;SDS011;52193;48.216;-1.698;2022-09-13T04:26:47;1.05;;;0.80;;
16862;SDS011;52193;48.216;-1.698;2022-09-13T04:29:15;2.38;;;1.10;;
16862;SDS011;52193;48.216;-1.698;2022-09-13T04:31:42;1.25;;;1.00;;
16862;SDS011;52193;48.216;-1.698;2022-09-13T04:34:09;1.88;;;1.08;;
16862;SDS011;52193;48.216;-1.698;2022-09-13T04:36:37;2.25;;;1.27;;
16862;SDS011;52193;48.216;-1.698;2022-09-13T04:39:04;1.33;;;1.20;;
16862;SDS011;52193;48.216;-1.698;2022-09-13T04:41:32;2.15;;;1.40;;
16862;SDS011;52193;48.216;-1.698;2022-09-13T04:44:00;3.80;;;1.60;;
16862;SDS011;52193;48.216;-1.698;2022-09-13T04:46:27;2.03;;;1.30;;
16862;SDS011;52193;48.216;-1.698;2022-09-13T04:48:55;1.48;;;1.38;;
16862;SDS011;52193;48.216;-1.698;2022-09-13T04:51:22;2.75;;;1.40;;
16862;SDS011;52193;48.216;-1.698;2022-09-13T04:53:50;1.90;;;1.40;;
16862;SDS011;52193;48.216;-1.698;2022-09-13T04:56:19;3.25;;;1.67;;
16862;SDS011;52193;48.216;-1.698;2022-09-13T04:58:49;1.75;;;1.58;;
16862;SDS011;52193;48.216;-1.698;2022-09-13T05:01:16;1.92;;;1.50;;
16862;SDS011;52193;48.216;-1.698;2022-09-13T05:03:43;2.15;;;1.63;;
16862;SDS011;52193;48.216;-1.698;2022-09-13T05:06:12;2.45;;;1.40;;
16862;SDS011;52193;48.216;-1.698;2022-09-13T05:08:42;1.30;;;1.20;;
16862;SDS011;52193;48.216;-1.698;2022-09-13T05:11:09;3.30;;;1.55;;
16862;SDS011;52193;48.216;-1.698;2022-09-13T05:13:36;2.75;;;1.50;;
16862;SDS011;52193;48.216;-1.698;2022-09-13T05:16:05;3.20;;;1.50;;
16862;SDS011;52193;48.216;-1.698;2022-09-13T05:18:34;4.57;;;1.30;;
16862;SDS011;52193;48.216;-1.698;2022-09-13T05:21:02;2.15;;;1.35;;
16862;SDS011;52193;48.216;-1.698;2022-09-13T05:23:30;4.03;;;1.50;;
16862;SDS011;52193;48.216;-1.698;2022-09-13T05:25:58;2.17;;;1.70;;
16862;SDS011;52193;48.216;-1.698;2022-09-13T05:28:26;2.50;;;1.70;;
16862;SDS011;52193;48.216;-1.698;2022-09-13T05:30:55;2.25;;;1.40;;
16862;SDS011;52193;48.216;-1.698;2022-09-13T05:33:24;2.05;;;1.70;;
16862;SDS011;52193;48.216;-1.698;2022-09-13T05:35:52;2.50;;;1.40;;
16862;SDS011;52193;48.216;-1.698;2022-09-13T05:38:19;1.63;;;1.52;;
16862;SDS011;52193;48.216;-1.698;2022-09-13T05:40:46;2.70;;;1.52;;
16862;SDS011;52193;48.216;-1.698;2022-09-13T05:43:13;1.80;;;1.55;;
16862;SDS011;52193;48.216;-1.698;2022-09-13T05:45:40;2.22;;;1.98;;
16862;SDS011;52193;48.216;-1.698;2022-09-13T05:48:07;2.88;;;1.70;;
16862;SDS011;52193;48.216;-1.698;2022-09-13T05:50:39;2.20;;;1.90;;
16862;SDS011;52193;48.216;-1.698;2022-09-13T05:53:06;2.28;;;1.30;;
16862;SDS011;52193;48.216;-1.698;2022-09-13T05:55:33;1.63;;;1.52;;
16862;SDS011;52193;48.216;-1.698;2022-09-13T05:58:00;2.33;;;1.50;;
16862;SDS011;52193;48.216;-1.698;2022-09-13T06:00:27;1.55;;;1.45;;
16862;SDS011;52193;48.216;-1.698;2022-09-13T06:02:55;1.58;;;1.48;;
16862;SDS011;52193;48.216;-1.698;2022-09-13T06:05:22;6.10;;;1.50;;
16862;SDS011;52193;48.216;-1.698;2022-09-13T06:07:51;2.65;;;1.40;;
16862;SDS011;52193;48.216;-1.698;2022-09-13T06:10:18;2.63;;;1.42;;
16862;SDS011;52193;48.216;-1.698;2022-09-13T06:12:45;4.15;;;1.58;;
16862;SDS011;52193;48.216;-1.698;2022-09-13T06:15:15;3.03;;;1.80;;
16862;SDS011;52193;48.216;-1.698;2022-09-13T06:17:42;2.85;;;1.70;;
16862;SDS011;52193;48.216;-1.698;2022-09-13T06:20:09;2.65;;;1.45;;
16862;SDS011;52193;48.216;-1.698;2022-09-13T06:22:36;4.22;;;1.95;;
16862;SDS011;52193;48.216;-1.698;2022-09-13T06:25:05;1.88;;;1.75;;
16862;SDS011;52193;48.216;-1.698;2022-09-13T06:27:33;2.13;;;1.63;;
16862;SDS011;52193;48.216;-1.698;2022-09-13T06:30:00;3.58;;;1.80;;
16862;SDS011;52193;48.216;-1.698;2022-09-13T06:32:27;2.03;;;1.50;;
16862;SDS011;52193;48.216;-1.698;2022-09-13T06:34:54;4.15;;;1.80;;
16862;SDS011;52193;48.216;-1.698;2022-09-13T06:37:21;2.53;;;1.63;;
16862;SDS011;52193;48.216;-1.698;2022-09-13T06:39:48;3.00;;;1.73;;
16862;SDS011;52193;48.216;-1.698;2022-09-13T06:42:16;1.85;;;1.50;;
16862;SDS011;52193;48.216;-1.698;2022-09-13T06:44:43;2.35;;;1.85;;
16862;SDS011;52193;48.216;-1.698;2022-09-13T06:47:12;4.15;;;1.70;;
16862;SDS011;52193;48.216;-1.698;2022-09-13T06:49:39;3.60;;;1.98;;
16862;SDS011;52193;48.216;-1.698;2022-09-13T06:52:06;2.85;;;1.75;;
16862;SDS011;52193;48.216;-1.698;2022-09-13T06:54:33;2.92;;;1.52;;
16862;SDS011;52193;48.216;-1.698;2022-09-13T06:57:00;2.55;;;1.52;;
16862;SDS011;52193;48.216;-1.698;2022-09-13T06:59:29;3.83;;;1.83;;
16862;SDS011;52193;48.216;-1.698;2022-09-13T07:01:56;3.08;;;1.83;;
16862;SDS011;52193;48.216;-1.698;2022-09-13T07:04:23;3.78;;;2.08;;
16862;SDS011;52193;48.216;-1.698;2022-09-13T07:06:50;3.45;;;2.15;;
16862;SDS011;52193;48.216;-1.698;2022-09-13T07:09:19;3.78;;;1.80;;
16862;SDS011;52193;48.216;-1.698;2022-09-13T07:11:47;2.13;;;1.70;;
16862;SDS011;52193;48.216;-1.698;2022-09-13T07:14:16;2.20;;;1.90;;
16862;SDS011;52193;48.216;-1.698;2022-09-13T07:16:45;4.07;;;1.55;;
16862;SDS011;52193;48.216;-1.698;2022-09-13T07:19:13;8.15;;;1.90;;
16862;SDS011;52193;48.216;-1.698;2022-09-13T07:21:41;3.70;;;1.67;;
16862;SDS011;52193;48.216;-1.698;2022-09-13T07:24:09;2.85;;;1.67;;
16862;SDS011;52193;48.216;-1.698;2022-09-13T07:26:36;2.10;;;1.42;;
16862;SDS011;52193;48.216;-1.698;2022-09-13T07:29:04;3.15;;;1.20;;
16862;SDS011;52193;48.216;-1.698;2022-09-13T07:31:33;2.88;;;1.52;;
16862;SDS011;52193;48.216;-1.698;2022-09-13T07:34:03;2.08;;;1.60;;
16862;SDS011;52193;48.216;-1.698;2022-09-13T07:36:31;2.88;;;1.52;;
16862;SDS011;52193;48.216;-1.698;2022-09-13T07:39:00;2.20;;;1.63;;
16862;SDS011;52193;48.216;-1.698;2022-09-13T07:41:28;1.50;;;1.40;;
16862;SDS011;52193;48.216;-1.698;2022-09-13T07:43:57;1.88;;;1.48;;
16862;SDS011;52193;48.216;-1.698;2022-09-13T07:46:26;2.20;;;1.60;;
16862;SDS011;52193;48.216;-1.698;2022-09-13T07:48:56;4.07;;;1.90;;
16862;SDS011;52193;48.216;-1.698;2022-09-13T07:51:26;4.53;;;1.65;;
16862;SDS011;52193;48.216;-1.698;2022-09-13T07:53:54;3.90;;;1.90;;
16862;SDS011;52193;48.216;-1.698;2022-09-13T07:56:23;1.60;;;1.35;;
16862;SDS011;52193;48.216;-1.698;2022-09-13T07:58:52;3.72;;;1.65;;
16862;SDS011;52193;48.216;-1.698;2022-09-13T08:01:20;3.85;;;1.40;;
16862;SDS011;52193;48.216;-1.698;2022-09-13T08:03:51;3.90;;;1.38;;
16862;SDS011;52193;48.216;-1.698;2022-09-13T08:06:19;4.00;;;1.67;;
16862;SDS011;52193;48.216;-1.698;2022-09-13T08:08:48;1.67;;;1.35;;
16862;SDS011;52193;48.216;-1.698;2022-09-13T08:11:16;3.63;;;1.60;;
16862;SDS011;52193;48.216;-1.698;2022-09-13T08:13:44;1.98;;;1.70;;
16862;SDS011;52193;48.216;-1.698;2022-09-13T08:16:12;1.85;;;1.40;;
16862;SDS011;52193;48.216;-1.698;2022-09-13T08:18:43;5.43;;;1.50;;
16862;SDS011;52193;48.216;-1.698;2022-09-13T08:21:10;1.77;;;1.67;;
16862;SDS011;52193;48.216;-1.698;2022-09-13T08:23:38;1.95;;;1.40;;
16862;SDS011;52193;48.216;-1.698;2022-09-13T08:26:06;2.05;;;1.40;;
16862;SDS011;52193;48.216;-1.698;2022-09-13T08:28:35;2.20;;;1.75;;
16862;SDS011;52193;48.216;-1.698;2022-09-13T08:31:04;2.42;;;1.40;;
16862;SDS011;52193;48.216;-1.698;2022-09-13T08:33:32;2.58;;;1.70;;
16862;SDS011;52193;48.216;-1.698;2022-09-13T08:36:00;2.22;;;1.55;;
16862;SDS011;52193;48.216;-1.698;2022-09-13T08:38:28;2.35;;;1.30;;
16862;SDS011;52193;48.216;-1.698;2022-09-13T08:40:55;4.22;;;1.70;;
16862;SDS011;52193;48.216;-1.698;2022-09-13T08:43:29;1.90;;;1.60;;
16862;SDS011;52193;48.216;-1.698;2022-09-13T08:46:05;4.25;;;1.77;;
16862;SDS011;52193;48.216;-1.698;2022-09-13T08:48:39;3.55;;;2.15;;
16862;SDS011;52193;48.216;-1.698;2022-09-13T08:51:13;3.88;;;1.60;;
16862;SDS011;52193;48.216;-1.698;2022-09-13T08:53:54;1.75;;;1.58;;
16862;SDS011;52193;48.216;-1.698;2022-09-13T08:56:22;3.25;;;1.80;;
16862;SDS011;52193;48.216;-1.698;2022-09-13T08:59:08;3.88;;;1.98;;
16862;SDS011;52193;48.216;-1.698;2022-09-13T09:01:53;4.47;;;1.90;;
16862;SDS011;52193;48.216;-1.698;2022-09-13T09:04:30;3.65;;;1.73;;
16862;SDS011;52193;48.216;-1.698;2022-09-13T09:07:04;2.13;;;1.60;;
16862;SDS011;52193;48.216;-1.698;2022-09-13T09:09:36;1.95;;;1.75;;
16862;SDS011;52193;48.216;-1.698;2022-09-13T09:12:10;2.78;;;1.63;;
16862;SDS011;52193;48.216;-1.698;2022-09-13T09:14:45;5.15;;;2.10;;
16862;SDS011;52193;48.216;-1.698;2022-09-13T09:17:20;3.45;;;1.80;;
16862;SDS011;52193;48.216;-1.698;2022-09-13T09:19:51;2.67;;;1.65;;
16862;SDS011;52193;48.216;-1.698;2022-09-13T09:22:21;4.10;;;2.05;;
16862;SDS011;52193;48.216;-1.698;2022-09-13T09:24:54;3.20;;;1.65;;
16862;SDS011;52193;48.216;-1.698;2022-09-13T09:27:22;4.45;;;1.67;;
16862;SDS011;52193;48.216;-1.698;2022-09-13T09:29:52;3.70;;;1.92;;
16862;SDS011;52193;48.216;-1.698;2022-09-13T09:32:27;2.88;;;1.90;;
16862;SDS011;52193;48.216;-1.698;2022-09-13T09:35:15;3.03;;;2.03;;
16862;SDS011;52193;48.216;-1.698;2022-09-13T09:37:49;3.30;;;2.03;;
16862;SDS011;52193;48.216;-1.698;2022-09-13T09:40:31;4.15;;;2.05;;
16862;SDS011;52193;48.216;-1.698;2022-09-13T09:43:00;4.78;;;2.10;;
16862;SDS011;52193;48.216;-1.698;2022-09-13T09:45:37;3.67;;;2.47;;
16862;SDS011;52193;48.216;-1.698;2022-09-13T09:48:07;4.43;;;2.30;;
16862;SDS011;52193;48.216;-1.698;2022-09-13T09:50:42;3.40;;;2.25;;
16862;SDS011;52193;48.216;-1.698;2022-09-13T09:53:13;7.07;;;2.20;;
16862;SDS011;52193;48.216;-1.698;2022-09-13T09:55:48;6.03;;;2.08;;
16862;SDS011;52193;48.216;-1.698;2022-09-13T09:58:23;3.60;;;2.30;;
16862;SDS011;52193;48.216;-1.698;2022-09-13T10:01:04;7.72;;;2.38;;
16862;SDS011;52193;48.216;-1.698;2022-09-13T10:03:40;6.45;;;2.30;;
16862;SDS011;52193;48.216;-1.698;2022-09-13T10:06:11;4.97;;;2.30;;
16862;SDS011;52193;48.216;-1.698;2022-09-13T10:08:45;4.60;;;2.80;;
16862;SDS011;52193;48.216;-1.698;2022-09-13T10:11:20;5.30;;;2.40;;
16862;SDS011;52193;48.216;-1.698;2022-09-13T10:13:57;8.73;;;2.47;;
16862;SDS011;52193;48.216;-1.698;2022-09-13T10:16:28;4.40;;;2.63;;
16862;SDS011;52193;48.216;-1.698;2022-09-13T10:19:04;7.35;;;2.55;;
16862;SDS011;52193;48.216;-1.698;2022-09-13T10:21:58;4.28;;;2.40;;
16862;SDS011;52193;48.216;-1.698;2022-09-13T10:24:27;5.78;;;2.33;;
16862;SDS011;52193;48.216;-1.698;2022-09-13T10:26:54;5.35;;;2.80;;
16862;SDS011;52193;48.216;-1.698;2022-09-13T10:29:22;7.43;;;2.65;;
16862;SDS011;52193;48.216;-1.698;2022-09-13T10:31:52;3.10;;;2.45;;
16862;SDS011;52193;48.216;-1.698;2022-09-13T10:34:22;3.40;;;2.58;;
16862;SDS011;52193;48.216;-1.698;2022-09-13T10:36:53;6.03;;;2.60;;
16862;SDS011;52193;48.216;-1.698;2022-09-13T10:39:23;5.38;;;2.30;;
16862;SDS011;52193;48.216;-1.698;2022-09-13T10:41:52;3.70;;;2.00;;
16862;SDS011;52193;48.216;-1.698;2022-09-13T10:44:23;7.20;;;2.50;;
16862;SDS011;52193;48.216;-1.698;2022-09-13T10:46:55;4.50;;;2.50;;
16862;SDS011;52193;48.216;-1.698;2022-09-13T10:49:37;4.00;;;2.13;;
16862;SDS011;52193;48.216;-1.698;2022-09-13T10:57:52;7.70;;;2.47;;
16862;SDS011;52193;48.216;-1.698;2022-09-13T11:00:21;9.18;;;2.63;;
16862;SDS011;52193;48.216;-1.698;2022-09-13T11:03:09;7.07;;;2.60;;
16862;SDS011;52193;48.216;-1.698;2022-09-13T11:05:51;7.43;;;2.58;;
16862;SDS011;52193;48.216;-1.698;2022-09-13T11:08:26;8.20;;;2.70;;
16862;SDS011;52193;48.216;-1.698;2022-09-13T11:11:08;3.63;;;2.70;;
16862;SDS011;52193;48.216;-1.698;2022-09-13T11:13:46;5.45;;;2.42;;
16862;SDS011;52193;48.216;-1.698;2022-09-13T11:16:24;4.63;;;2.55;;
16862;SDS011;52193;48.216;-1.698;2022-09-13T11:19:14;4.45;;;2.80;;
16862;SDS011;52193;48.216;-1.698;2022-09-13T11:22:10;6.22;;;2.80;;
16862;SDS011;52193;48.216;-1.698;2022-09-13T11:24:54;5.28;;;2.45;;
16862;SDS011;52193;48.216;-1.698;2022-09-13T11:27:31;6.32;;;2.58;;
16862;SDS011;52193;48.216;-1.698;2022-09-13T11:30:09;6.57;;;2.40;;
16862;SDS011;52193;48.216;-1.698;2022-09-13T11:33:00;6.80;;;2.70;;
16862;SDS011;52193;48.216;-1.698;2022-09-13T11:35:51;8.80;;;2.47;;
16862;SDS011;52193;48.216;-1.698;2022-09-13T11:38:36;8.10;;;2.38;;
16862;SDS011;52193;48.216;-1.698;2022-09-13T11:41:17;7.18;;;3.17;;
16862;SDS011;52193;48.216;-1.698;2022-09-13T11:43:59;4.03;;;2.63;;
16862;SDS011;52193;48.216;-1.698;2022-09-13T11:46:47;6.72;;;2.90;;
16862;SDS011;52193;48.216;-1.698;2022-09-13T11:49:32;8.48;;;3.17;;
16862;SDS011;52193;48.216;-1.698;2022-09-13T11:52:10;5.20;;;2.50;;
16862;SDS011;52193;48.216;-1.698;2022-09-13T11:54:49;4.95;;;2.60;;
16862;SDS011;52193;48.216;-1.698;2022-09-13T11:57:25;5.65;;;2.53;;
16862;SDS011;52193;48.216;-1.698;2022-09-13T11:59:57;4.20;;;2.63;;
16862;SDS011;52193;48.216;-1.698;2022-09-13T12:02:28;5.97;;;2.47;;
16862;SDS011;52193;48.216;-1.698;2022-09-13T12:05:05;3.90;;;2.70;;
16862;SDS011;52193;48.216;-1.698;2022-09-13T12:07:37;7.18;;;2.80;;
16862;SDS011;52193;48.216;-1.698;2022-09-13T12:10:12;5.05;;;2.60;;
16862;SDS011;52193;48.216;-1.698;2022-09-13T12:12:42;6.32;;;2.42;;
16862;SDS011;52193;48.216;-1.698;2022-09-13T12:15:14;5.97;;;2.90;;
16862;SDS011;52193;48.216;-1.698;2022-09-13T12:17:44;9.05;;;2.80;;
16862;SDS011;52193;48.216;-1.698;2022-09-13T12:20:16;6.88;;;3.13;;
16862;SDS011;52193;48.216;-1.698;2022-09-13T12:22:51;5.35;;;2.70;;
16862;SDS011;52193;48.216;-1.698;2022-09-13T12:25:22;6.20;;;2.80;;
16862;SDS011;52193;48.216;-1.698;2022-09-13T12:27:56;4.03;;;2.30;;
16862;SDS011;52193;48.216;-1.698;2022-09-13T12:30:32;5.80;;;3.05;;
16862;SDS011;52193;48.216;-1.698;2022-09-13T12:33:07;8.05;;;3.20;;
16862;SDS011;52193;48.216;-1.698;2022-09-13T12:35:35;6.40;;;2.65;;
16862;SDS011;52193;48.216;-1.698;2022-09-13T12:41:18;6.45;;;2.88;;
16862;SDS011;52193;48.216;-1.698;2022-09-13T12:44:02;4.97;;;3.00;;
16862;SDS011;52193;48.216;-1.698;2022-09-13T12:46:54;6.70;;;2.55;;
16862;SDS011;52193;48.216;-1.698;2022-09-13T12:49:48;4.28;;;2.60;;
16862;SDS011;52193;48.216;-1.698;2022-09-13T12:52:35;6.65;;;2.85;;
16862;SDS011;52193;48.216;-1.698;2022-09-13T12:55:21;6.82;;;2.63;;
16862;SDS011;52193;48.216;-1.698;2022-09-13T12:58:14;5.47;;;2.83;;
16862;SDS011;52193;48.216;-1.698;2022-09-13T13:00:58;6.65;;;2.95;;
16862;SDS011;52193;48.216;-1.698;2022-09-13T13:03:34;5.90;;;2.70;;
16862;SDS011;52193;48.216;-1.698;2022-09-13T13:06:10;4.78;;;2.33;;
16862;SDS011;52193;48.216;-1.698;2022-09-13T13:08:49;5.72;;;2.60;;
16862;SDS011;52193;48.216;-1.698;2022-09-13T13:11:19;7.57;;;2.83;;
16862;SDS011;52193;48.216;-1.698;2022-09-13T13:13:55;4.65;;;2.63;;
16862;SDS011;52193;48.216;-1.698;2022-09-13T13:16:24;6.20;;;3.30;;
16862;SDS011;52193;48.216;-1.698;2022-09-13T13:18:54;6.15;;;2.90;;
16862;SDS011;52193;48.216;-1.698;2022-09-13T13:21:24;5.88;;;3.05;;
16862;SDS011;52193;48.216;-1.698;2022-09-13T13:27:00;6.03;;;2.80;;
16862;SDS011;52193;48.216;-1.698;2022-09-13T13:33:18;4.72;;;2.80;;
16862;SDS011;52193;48.216;-1.698;2022-09-13T13:35:46;6.18;;;2.97;;
16862;SDS011;52193;48.216;-1.698;2022-09-13T13:38:36;4.53;;;3.20;;
16862;SDS011;52193;48.216;-1.698;2022-09-13T13:50:17;6.00;;;3.15;;
16862;SDS011;52193;48.216;-1.698;2022-09-13T13:52:52;8.45;;;3.50;;
16862;SDS011;52193;48.216;-1.698;2022-09-13T13:55:37;5.25;;;3.70;;
16862;SDS011;52193;48.216;-1.698;2022-09-13T14:00:53;5.72;;;3.55;;
16862;SDS011;52193;48.216;-1.698;2022-09-13T14:03:24;5.40;;;3.33;;
16862;SDS011;52193;48.216;-1.698;2022-09-13T14:05:58;7.38;;;3.65;;
16862;SDS011;52193;48.216;-1.698;2022-09-13T14:08:33;9.32;;;4.18;;
16862;SDS011;52193;48.216;-1.698;2022-09-13T14:11:12;5.72;;;3.85;;
16862;SDS011;52193;48.216;-1.698;2022-09-13T14:13:52;6.25;;;4.05;;
16862;SDS011;52193;48.216;-1.698;2022-09-13T14:16:32;5.63;;;3.55;;
16862;SDS011;52193;48.216;-1.698;2022-09-13T14:19:14;5.40;;;3.60;;
16862;SDS011;52193;48.216;-1.698;2022-09-13T14:24:41;5.38;;;3.78;;
16862;SDS011;52193;48.216;-1.698;2022-09-13T14:27:14;7.25;;;3.72;;
16862;SDS011;52193;48.216;-1.698;2022-09-13T14:29:45;7.47;;;3.40;;
16862;SDS011;52193;48.216;-1.698;2022-09-13T14:32:15;5.75;;;3.70;;
16862;SDS011;52193;48.216;-1.698;2022-09-13T14:34:52;5.82;;;3.70;;
16862;SDS011;52193;48.216;-1.698;2022-09-13T14:37:23;8.90;;;4.05;;
16862;SDS011;52193;48.216;-1.698;2022-09-13T14:39:55;6.43;;;3.75;;
16862;SDS011;52193;48.216;-1.698;2022-09-13T14:42:23;7.90;;;3.97;;
16862;SDS011;52193;48.216;-1.698;2022-09-13T14:44:50;5.43;;;3.38;;
16862;SDS011;52193;48.216;-1.698;2022-09-13T14:47:18;9.63;;;4.30;;
16862;SDS011;52193;48.216;-1.698;2022-09-13T14:49:56;9.93;;;4.47;;
16862;SDS011;52193;48.216;-1.698;2022-09-13T14:52:27;10.90;;;4.57;;
16862;SDS011;52193;48.216;-1.698;2022-09-13T14:54:58;8.52;;;3.78;;
16862;SDS011;52193;48.216;-1.698;2022-09-13T14:57:29;5.57;;;3.92;;
16862;SDS011;52193;48.216;-1.698;2022-09-13T14:59:59;9.80;;;4.57;;
16862;SDS011;52193;48.216;-1.698;2022-09-13T15:02:28;7.05;;;4.38;;
16862;SDS011;52193;48.216;-1.698;2022-09-13T15:05:03;6.40;;;4.40;;
16862;SDS011;52193;48.216;-1.698;2022-09-13T15:07:35;8.18;;;4.72;;
16862;SDS011;52193;48.216;-1.698;2022-09-13T15:10:08;7.80;;;4.55;;
16862;SDS011;52193;48.216;-1.698;2022-09-13T15:12:49;6.97;;;4.53;;
16862;SDS011;52193;48.216;-1.698;2022-09-13T15:15:26;7.38;;;4.35;;
16862;SDS011;52193;48.216;-1.698;2022-09-13T15:17:59;8.77;;;4.80;;
16862;SDS011;52193;48.216;-1.698;2022-09-13T15:20:29;6.25;;;4.68;;
16862;SDS011;52193;48.216;-1.698;2022-09-13T15:23:11;7.90;;;5.00;;
16862;SDS011;52193;48.216;-1.698;2022-09-13T15:25:40;8.90;;;5.10;;
16862;SDS011;52193;48.216;-1.698;2022-09-13T15:28:18;7.15;;;4.82;;
16862;SDS011;52193;48.216;-1.698;2022-09-13T15:30:47;8.80;;;4.68;;
16862;SDS011;52193;48.216;-1.698;2022-09-13T15:33:17;6.75;;;5.28;;
16862;SDS011;52193;48.216;-1.698;2022-09-13T15:35:51;8.27;;;4.95;;